createdAt,value
2019-03-27T00:00:36.062Z,5.06
2019-03-27T00:01:41.815Z,4.98
2019-03-27T00:02:47.620Z,5.06
2019-03-27T00:03:53.396Z,5.23
2019-03-27T00:05:00.311Z,5.29
2019-03-27T00:06:06.051Z,5.09
2019-03-27T00:07:11.935Z,4.92
2019-03-27T00:08:17.673Z,4.94
2019-03-27T00:09:23.456Z,5.09
2019-03-27T00:10:29.281Z,5.19
2019-03-27T00:11:36.943Z,5.29
2019-03-27T00:12:42.835Z,5.05
2019-03-27T00:13:48.564Z,4.91
2019-03-27T00:14:55.444Z,4.99
2019-03-27T00:16:01.349Z,5.18
2019-03-27T00:17:07.052Z,5.30
2019-03-27T00:18:12.794Z,5.18
2019-03-27T00:19:18.584Z,4.95
2019-03-27T00:20:24.409Z,4.98
2019-03-27T00:21:30.115Z,5.11
2019-03-27T00:22:37.987Z,5.24
2019-03-27T00:23:44.858Z,5.30
2019-03-27T00:24:50.622Z,5.04
2019-03-27T00:25:56.423Z,4.88
2019-03-27T00:27:02.212Z,4.90
2019-03-27T00:28:07.959Z,4.98
2019-03-27T00:29:13.695Z,5.12
2019-03-27T00:30:19.467Z,5.27
2019-03-27T00:31:26.420Z,5.29
2019-03-27T00:32:32.321Z,5.06
2019-03-27T00:33:38.064Z,4.98
2019-03-27T00:34:43.859Z,5.08
2019-03-27T00:35:49.605Z,5.20
2019-03-27T00:36:55.376Z,5.27
2019-03-27T00:38:01.081Z,5.09
2019-03-27T00:39:08.359Z,4.96
2019-03-27T00:40:14.095Z,5.05
2019-03-27T00:41:19.834Z,5.20
2019-03-27T00:42:26.962Z,5.27
2019-03-27T00:43:32.703Z,5.12
2019-03-27T00:44:38.452Z,5.02
2019-03-27T00:45:44.230Z,5.09
2019-03-27T00:46:50.017Z,5.29
2019-03-27T00:47:55.779Z,5.27
2019-03-27T00:49:01.523Z,5.06
2019-03-27T00:50:11.174Z,5.02
2019-03-27T00:51:16.971Z,5.11
2019-03-27T00:52:22.717Z,5.27
2019-03-27T00:53:28.457Z,5.33
2019-03-27T00:54:35.983Z,5.12
2019-03-27T00:55:42.007Z,4.95
2019-03-27T00:56:47.868Z,5.04
2019-03-27T00:57:53.652Z,5.18
2019-03-27T00:58:59.366Z,5.33
2019-03-27T01:00:12.483Z,5.20
2019-03-27T01:01:18.369Z,4.96
2019-03-27T01:02:24.171Z,4.96
2019-03-27T01:03:29.971Z,5.12
2019-03-27T01:04:36.923Z,5.32
2019-03-27T01:05:43.884Z,5.29
2019-03-27T01:06:51.150Z,5.02
2019-03-27T01:07:57.073Z,4.92
2019-03-27T01:09:02.841Z,5.09
2019-03-27T01:10:10.227Z,5.30
2019-03-27T01:11:16.003Z,5.30
2019-03-27T01:12:21.753Z,5.08
2019-03-27T01:13:27.467Z,4.99
2019-03-27T01:14:34.015Z,5.09
2019-03-27T01:15:40.399Z,5.29
2019-03-27T01:16:46.164Z,5.34
2019-03-27T01:17:51.885Z,5.04
2019-03-27T01:18:58.816Z,4.85
2019-03-27T01:20:06.797Z,4.88
2019-03-27T01:21:14.965Z,5.04
2019-03-27T01:22:20.771Z,5.19
2019-03-27T01:23:26.980Z,5.32
2019-03-27T01:24:33.654Z,5.16
2019-03-27T01:25:39.476Z,4.96
2019-03-27T01:26:46.453Z,4.98
2019-03-27T01:27:52.235Z,5.12
2019-03-27T01:28:59.084Z,5.30
2019-03-27T01:30:06.630Z,5.29
2019-03-27T01:31:12.405Z,5.04
2019-03-27T01:32:18.191Z,4.95
2019-03-27T01:33:23.954Z,5.02
2019-03-27T01:34:29.659Z,5.19
2019-03-27T01:35:35.476Z,5.32
2019-03-27T01:36:41.236Z,5.16
2019-03-27T01:37:46.968Z,4.98
2019-03-27T01:38:52.692Z,5.02
2019-03-27T01:39:58.439Z,5.20
2019-03-27T01:41:04.161Z,5.30
2019-03-27T01:42:09.852Z,5.18
2019-03-27T01:43:15.676Z,4.99
2019-03-27T01:44:21.409Z,5.01
2019-03-27T01:45:27.171Z,5.13
2019-03-27T01:46:34.145Z,5.30
2019-03-27T01:47:41.115Z,5.24
2019-03-27T01:48:47.354Z,5.01
2019-03-27T01:49:53.113Z,5.02
2019-03-27T01:50:58.992Z,5.12
2019-03-27T01:52:08.145Z,5.27
2019-03-27T01:53:14.077Z,5.27
2019-03-27T01:54:19.815Z,5.01
2019-03-27T01:55:25.536Z,4.88
2019-03-27T01:56:31.268Z,4.88
2019-03-27T01:57:37.089Z,4.96
2019-03-27T01:58:42.869Z,5.13
2019-03-27T01:59:50.140Z,5.23
2019-03-27T02:00:55.964Z,5.24
2019-03-27T02:02:01.688Z,5.05
2019-03-27T02:03:12.897Z,5.02
2019-03-27T02:04:18.611Z,5.11
2019-03-27T02:05:24.562Z,5.20
2019-03-27T02:06:30.234Z,5.26
2019-03-27T02:07:37.356Z,5.11
2019-03-27T02:08:43.112Z,5.04
2019-03-27T02:09:48.854Z,5.12
2019-03-27T02:10:54.647Z,5.22
2019-03-27T02:12:00.422Z,5.24
2019-03-27T02:13:06.264Z,5.08
2019-03-27T02:14:12.068Z,5.02
2019-03-27T02:15:19.074Z,5.12
2019-03-27T02:16:24.754Z,5.27
2019-03-27T02:17:30.453Z,5.30
2019-03-27T02:18:36.220Z,5.05
2019-03-27T02:19:42.067Z,4.96
2019-03-27T02:20:48.399Z,5.05
2019-03-27T02:21:54.232Z,5.20
2019-03-27T02:23:00.046Z,5.29
2019-03-27T02:24:05.782Z,5.13
2019-03-27T02:25:11.525Z,4.95
2019-03-27T02:26:18.640Z,5.01
2019-03-27T02:27:25.663Z,5.15
2019-03-27T02:28:31.451Z,5.30
2019-03-27T02:29:37.150Z,5.23
2019-03-27T02:30:42.936Z,5.04
2019-03-27T02:31:48.617Z,5.02
2019-03-27T02:32:54.386Z,5.15
2019-03-27T02:34:00.227Z,5.34
2019-03-27T02:35:06.589Z,5.20
2019-03-27T02:36:12.371Z,4.99
2019-03-27T02:37:19.644Z,5.02
2019-03-27T02:38:25.556Z,5.19
2019-03-27T02:39:31.282Z,5.32
2019-03-27T02:40:37.142Z,5.20
2019-03-27T02:41:44.311Z,4.99
2019-03-27T02:42:50.276Z,5.01
2019-03-27T02:43:56.010Z,5.13
2019-03-27T02:45:01.740Z,5.30
2019-03-27T02:46:23.382Z,5.23
2019-03-27T02:47:15.000Z,4.99
2019-03-27T02:48:20.701Z,5.04
2019-03-27T02:49:26.521Z,5.19
2019-03-27T02:50:32.238Z,5.33
2019-03-27T02:51:37.982Z,5.19
2019-03-27T02:52:43.725Z,4.98
2019-03-27T02:53:50.327Z,5.02
2019-03-27T02:54:56.064Z,5.19
2019-03-27T02:56:01.812Z,5.33
2019-03-27T02:57:07.599Z,5.16
2019-03-27T02:58:13.382Z,4.98
2019-03-27T02:59:19.067Z,5.01
2019-03-27T03:00:24.866Z,5.13
2019-03-27T03:01:30.806Z,5.30
2019-03-27T03:02:37.906Z,5.23
2019-03-27T03:03:43.744Z,4.96
2019-03-27T03:04:49.536Z,4.92
2019-03-27T03:05:55.330Z,5.02
2019-03-27T03:07:01.102Z,5.18
2019-03-27T03:08:07.997Z,5.30
2019-03-27T03:09:13.753Z,5.20
2019-03-27T03:10:20.760Z,4.94
2019-03-27T03:11:27.738Z,4.92
2019-03-27T03:12:33.533Z,4.99
2019-03-27T03:13:39.270Z,5.15
2019-03-27T03:14:44.984Z,5.22
2019-03-27T03:15:50.856Z,5.23
2019-03-27T03:16:58.660Z,5.08
2019-03-27T03:18:04.396Z,5.02
2019-03-27T03:19:10.672Z,5.11
2019-03-27T03:20:16.439Z,5.16
2019-03-27T03:21:22.159Z,5.29
2019-03-27T03:22:27.948Z,5.16
2019-03-27T03:23:33.635Z,4.98
2019-03-27T03:24:39.350Z,4.98
2019-03-27T03:25:45.108Z,5.04
2019-03-27T03:26:51.643Z,5.11
2019-03-27T03:27:58.555Z,5.20
2019-03-27T03:29:04.259Z,5.27
2019-03-27T03:30:11.706Z,5.06
2019-03-27T03:31:17.498Z,4.94
2019-03-27T03:32:23.198Z,4.96
2019-03-27T03:33:28.924Z,5.06
2019-03-27T03:34:34.683Z,5.16
2019-03-27T03:35:41.188Z,5.26
2019-03-27T03:36:46.937Z,5.20
2019-03-27T03:37:52.651Z,5.02
2019-03-27T03:38:59.562Z,4.98
2019-03-27T03:40:09.149Z,5.02
2019-03-27T03:41:14.874Z,5.15
2019-03-27T03:42:21.861Z,5.26
2019-03-27T03:43:27.684Z,5.19
2019-03-27T03:44:34.238Z,5.01
2019-03-27T03:45:40.425Z,4.96
2019-03-27T03:46:58.838Z,5.09
2019-03-27T03:47:53.626Z,5.19
2019-03-27T03:48:59.327Z,5.26
2019-03-27T03:50:07.829Z,5.13
2019-03-27T03:51:13.541Z,5.01
2019-03-27T03:52:20.475Z,5.05
2019-03-27T03:53:27.034Z,5.12
2019-03-27T03:54:32.748Z,5.19
2019-03-27T03:55:40.082Z,5.22
2019-03-27T03:56:45.778Z,5.20
2019-03-27T03:57:51.544Z,5.18
2019-03-27T03:58:59.431Z,5.09
2019-03-27T04:00:07.159Z,5.05
2019-03-27T04:01:13.297Z,5.11
2019-03-27T04:02:19.022Z,5.15
2019-03-27T04:03:27.018Z,5.15
2019-03-27T04:04:32.761Z,5.11
2019-03-27T04:05:39.613Z,5.06
2019-03-27T04:06:45.352Z,5.02
2019-03-27T04:07:51.064Z,5.01
2019-03-27T04:08:56.838Z,5.04
2019-03-27T04:10:02.563Z,5.02
2019-03-27T04:11:09.898Z,5.05
2019-03-27T04:12:15.817Z,5.09
2019-03-27T04:13:21.512Z,5.18
2019-03-27T04:14:27.248Z,5.23
2019-03-27T04:15:34.043Z,5.20
2019-03-27T04:16:39.754Z,5.18
2019-03-27T04:17:45.539Z,5.19
2019-03-27T04:18:51.238Z,5.23
2019-03-27T04:19:56.943Z,5.19
2019-03-27T04:21:02.651Z,4.98
2019-03-27T04:22:08.390Z,4.90
2019-03-27T04:23:14.138Z,4.95
2019-03-27T04:24:19.853Z,5.02
2019-03-27T04:25:27.665Z,5.15
2019-03-27T04:26:35.081Z,5.23
2019-03-27T04:27:40.829Z,5.22
2019-03-27T04:28:46.614Z,5.06
2019-03-27T04:29:52.370Z,5.04
2019-03-27T04:30:58.091Z,5.08
2019-03-27T04:32:05.151Z,5.13
2019-03-27T04:33:10.918Z,5.23
2019-03-27T04:34:16.672Z,5.23
2019-03-27T04:35:22.502Z,5.04
2019-03-27T04:36:28.185Z,4.96
2019-03-27T04:37:33.948Z,4.96
2019-03-27T04:38:40.961Z,5.09
2019-03-27T04:39:46.676Z,5.13
2019-03-27T04:40:52.421Z,5.20
2019-03-27T04:41:59.757Z,5.20
2019-03-27T04:43:05.473Z,5.18
2019-03-27T04:44:11.211Z,5.18
2019-03-27T04:45:17.433Z,5.19
2019-03-27T04:46:23.231Z,5.24
2019-03-27T04:47:32.384Z,5.18
2019-03-27T04:48:37.682Z,5.05
2019-03-27T04:49:44.104Z,5.02
2019-03-27T04:50:50.698Z,5.09
2019-03-27T04:51:56.439Z,5.19
2019-03-27T04:53:04.108Z,5.24
2019-03-27T04:54:09.878Z,5.08
2019-03-27T04:55:15.584Z,4.99
2019-03-27T04:56:23.005Z,5.04
2019-03-27T04:57:28.897Z,5.12
2019-03-27T04:58:34.730Z,5.23
2019-03-27T04:59:40.476Z,5.23
2019-03-27T05:00:46.228Z,5.04
2019-03-27T05:01:52.095Z,5.02
2019-03-27T05:02:57.924Z,5.08
2019-03-27T05:04:04.151Z,5.16
2019-03-27T05:05:10.569Z,5.26
2019-03-27T05:06:16.378Z,5.19
2019-03-27T05:07:22.151Z,5.02
2019-03-27T05:08:27.958Z,5.02
2019-03-27T05:09:34.287Z,5.08
2019-03-27T05:10:41.306Z,5.19
2019-03-27T05:11:48.482Z,5.27
2019-03-27T05:12:54.296Z,5.11
2019-03-27T05:14:00.000Z,5.01
2019-03-27T05:15:07.922Z,5.05
2019-03-27T05:16:13.674Z,5.22
2019-03-27T05:17:19.373Z,5.33
2019-03-27T05:18:26.792Z,5.15
2019-03-27T05:19:32.546Z,4.96
2019-03-27T05:20:39.642Z,5.02
2019-03-27T05:21:45.613Z,5.16
2019-03-27T05:22:51.428Z,5.29
2019-03-27T05:23:57.180Z,5.20
2019-03-27T05:25:02.973Z,5.01
2019-03-27T05:26:08.740Z,5.11
2019-03-27T05:27:14.624Z,5.24
2019-03-27T05:28:20.401Z,5.39
2019-03-27T05:29:28.940Z,5.29
2019-03-27T05:30:34.711Z,5.09
2019-03-27T05:31:41.790Z,5.24
2019-03-27T05:32:54.872Z,5.63
2019-03-27T05:34:00.840Z,5.75
2019-03-27T05:35:07.878Z,5.71
2019-03-27T05:36:13.586Z,5.58
2019-03-27T05:37:19.305Z,5.49
2019-03-27T05:38:25.064Z,5.30
2019-03-27T05:39:31.667Z,5.22
2019-03-27T05:40:37.473Z,5.33
2019-03-27T05:42:16.327Z,5.56
2019-03-27T05:43:30.530Z,5.61
2019-03-27T05:44:37.136Z,5.64
2019-03-27T05:45:43.031Z,5.61
2019-03-27T05:46:48.747Z,5.66
2019-03-27T05:47:59.789Z,5.84
2019-03-27T05:49:01.840Z,6.03
2019-03-27T05:50:07.597Z,6.09
2019-03-27T05:51:13.369Z,6.06
2019-03-27T05:52:20.179Z,6.17
2019-03-27T05:53:35.524Z,6.41
2019-03-27T05:54:44.620Z,6.71
2019-03-27T05:55:50.547Z,6.91
2019-03-27T05:56:56.292Z,7.00
2019-03-27T05:58:03.076Z,7.07
2019-03-27T05:59:09.129Z,7.16
2019-03-27T06:00:16.615Z,7.40
2019-03-27T06:01:22.720Z,7.63
2019-03-27T06:02:28.792Z,7.89
2019-03-27T06:03:34.530Z,8.07
2019-03-27T06:04:40.298Z,8.24
2019-03-27T06:05:47.688Z,8.35
2019-03-27T06:06:53.409Z,8.41
2019-03-27T06:07:59.201Z,8.45
2019-03-27T06:09:06.270Z,8.47
2019-03-27T06:10:12.188Z,8.49
2019-03-27T06:11:18.466Z,8.58
2019-03-27T06:12:24.212Z,8.55
2019-03-27T06:13:30.028Z,8.51
2019-03-27T06:14:35.825Z,8.38
2019-03-27T06:15:44.894Z,8.24
2019-03-27T06:16:49.624Z,8.10
2019-03-27T06:17:56.644Z,7.97
2019-03-27T06:19:02.778Z,7.85
2019-03-27T06:20:09.331Z,7.86
2019-03-27T06:21:15.167Z,7.97
2019-03-27T06:22:21.151Z,8.14
2019-03-27T06:23:27.786Z,8.27
2019-03-27T06:24:33.709Z,8.21
2019-03-27T06:25:39.423Z,8.17
2019-03-27T06:26:46.846Z,8.10
2019-03-27T06:28:07.919Z,8.03
2019-03-27T06:29:15.887Z,7.93
2019-03-27T06:30:21.719Z,7.86
2019-03-27T06:31:27.954Z,7.79
2019-03-27T06:32:33.876Z,7.74
2019-03-27T06:33:39.758Z,7.85
2019-03-27T06:34:45.515Z,7.93
2019-03-27T06:35:51.693Z,8.03
2019-03-27T06:36:57.829Z,8.09
2019-03-27T06:38:04.545Z,8.09
2019-03-27T06:39:11.049Z,8.11
2019-03-27T06:40:18.149Z,8.16
2019-03-27T06:41:26.158Z,8.24
2019-03-27T06:42:31.864Z,8.42
2019-03-27T06:43:37.753Z,8.60
2019-03-27T06:44:43.558Z,8.84
2019-03-27T06:45:51.896Z,9.14
2019-03-27T06:46:57.748Z,9.52
2019-03-27T06:48:03.594Z,9.93
2019-03-27T06:49:09.355Z,10.29
2019-03-27T06:50:15.119Z,10.62
2019-03-27T06:51:20.923Z,11.05
2019-03-27T06:52:26.731Z,11.56
2019-03-27T06:53:32.609Z,12.09
2019-03-27T06:54:40.271Z,12.61
2019-03-27T06:55:46.437Z,13.15
2019-03-27T06:56:52.807Z,13.55
2019-03-27T06:58:00.445Z,13.92
2019-03-27T06:59:06.240Z,14.30
2019-03-27T07:00:12.304Z,14.76
2019-03-27T07:01:18.205Z,15.23
2019-03-27T07:02:24.306Z,15.57
2019-03-27T07:03:31.373Z,15.86
2019-03-27T07:04:38.064Z,16.17
2019-03-27T07:05:43.862Z,16.51
2019-03-27T07:06:49.796Z,16.71
2019-03-27T07:07:56.728Z,16.85
2019-03-27T07:09:02.551Z,16.88
2019-03-27T07:10:08.925Z,16.56
2019-03-27T07:11:22.498Z,15.96
2019-03-27T07:12:28.367Z,15.05
2019-03-27T07:13:34.173Z,14.11
2019-03-27T07:14:40.077Z,13.33
2019-03-27T07:15:46.055Z,12.64
2019-03-27T07:16:51.902Z,12.06
2019-03-27T07:17:57.832Z,11.46
2019-03-27T07:19:03.704Z,10.91
2019-03-27T07:20:09.571Z,10.40
2019-03-27T07:21:16.449Z,9.96
2019-03-27T07:22:23.372Z,9.49
2019-03-27T07:23:29.179Z,9.10
2019-03-27T07:24:34.962Z,8.76
2019-03-27T07:25:42.593Z,8.45
2019-03-27T07:26:48.683Z,8.18
2019-03-27T07:27:54.424Z,7.94
2019-03-27T07:29:00.344Z,7.76
2019-03-27T07:30:07.485Z,7.55
2019-03-27T07:31:13.356Z,7.41
2019-03-27T07:32:19.081Z,7.27
2019-03-27T07:33:24.989Z,7.16
2019-03-27T07:34:30.902Z,7.00
2019-03-27T07:35:36.713Z,6.89
2019-03-27T07:36:43.837Z,6.74
2019-03-27T07:37:49.580Z,6.64
2019-03-27T07:38:55.503Z,6.51
2019-03-27T07:40:01.535Z,6.39
2019-03-27T07:41:07.671Z,6.27
2019-03-27T07:42:13.595Z,6.20
2019-03-27T07:43:19.377Z,6.22
2019-03-27T07:44:25.147Z,6.59
2019-03-27T07:45:32.508Z,7.14
2019-03-27T07:46:39.644Z,7.70
2019-03-27T07:47:48.147Z,8.25
2019-03-27T07:48:54.460Z,8.86
2019-03-27T07:50:01.599Z,9.28
2019-03-27T07:51:07.455Z,9.25
2019-03-27T07:52:13.184Z,9.04
2019-03-27T07:53:22.636Z,8.75
2019-03-27T07:54:28.539Z,8.42
2019-03-27T07:55:35.493Z,8.14
2019-03-27T07:56:41.401Z,7.89
2019-03-27T07:57:47.179Z,7.65
2019-03-27T07:58:52.991Z,7.45
2019-03-27T07:59:59.039Z,7.29
2019-03-27T08:01:04.821Z,7.10
2019-03-27T08:02:10.883Z,6.91
2019-03-27T08:03:16.765Z,6.71
2019-03-27T08:04:22.835Z,6.59
2019-03-27T08:05:28.766Z,6.55
2019-03-27T08:06:37.554Z,6.86
2019-03-27T08:07:43.390Z,7.44
2019-03-27T08:08:49.293Z,8.04
2019-03-27T08:09:55.094Z,8.60
2019-03-27T08:11:01.037Z,9.18
2019-03-27T08:12:06.894Z,9.57
2019-03-27T08:13:12.698Z,9.57
2019-03-27T08:14:18.645Z,9.35
2019-03-27T08:15:24.457Z,9.04
2019-03-27T08:16:30.917Z,8.66
2019-03-27T08:17:37.620Z,8.32
2019-03-27T08:18:45.255Z,8.03
2019-03-27T08:19:51.286Z,7.74
2019-03-27T08:20:57.225Z,7.51
2019-03-27T08:22:03.291Z,7.31
2019-03-27T08:23:09.397Z,7.09
2019-03-27T08:24:15.365Z,6.91
2019-03-27T08:25:21.185Z,6.74
2019-03-27T08:26:26.931Z,6.61
2019-03-27T08:27:32.747Z,6.50
2019-03-27T08:28:38.831Z,6.39
2019-03-27T08:29:45.578Z,6.31
2019-03-27T08:30:52.406Z,6.24
2019-03-27T08:31:58.324Z,6.24
2019-03-27T08:33:04.566Z,6.22
2019-03-27T08:34:10.316Z,6.26
2019-03-27T08:35:16.115Z,6.67
2019-03-27T08:36:21.877Z,7.27
2019-03-27T08:37:27.687Z,7.92
2019-03-27T08:38:33.475Z,8.52
2019-03-27T08:39:39.388Z,9.14
2019-03-27T08:40:45.279Z,9.53
2019-03-27T08:41:52.760Z,9.56
2019-03-27T08:42:59.412Z,9.39
2019-03-27T08:44:05.452Z,9.17
2019-03-27T08:45:14.319Z,8.97
2019-03-27T08:46:20.505Z,8.73
2019-03-27T08:47:26.509Z,8.49
2019-03-27T08:48:32.382Z,8.30
2019-03-27T08:49:38.241Z,8.11
2019-03-27T08:50:44.278Z,7.90
2019-03-27T08:51:50.235Z,7.76
2019-03-27T08:52:56.181Z,7.63
2019-03-27T08:54:02.975Z,7.54
2019-03-27T08:55:09.235Z,7.44
2019-03-27T08:56:15.024Z,7.38
2019-03-27T08:57:20.812Z,7.31
2019-03-27T08:58:26.605Z,7.21
2019-03-27T08:59:32.606Z,7.19
2019-03-27T09:00:54.850Z,7.10
2019-03-27T09:02:00.668Z,7.02
2019-03-27T09:03:06.491Z,6.95
2019-03-27T09:04:12.396Z,6.89
2019-03-27T09:05:18.242Z,6.84
2019-03-27T09:06:33.499Z,6.76
2019-03-27T09:07:31.366Z,6.72
2019-03-27T09:08:37.248Z,6.74
2019-03-27T09:09:43.021Z,6.72
2019-03-27T09:10:48.939Z,6.74
2019-03-27T09:11:54.691Z,6.74
2019-03-27T09:13:07.305Z,6.74
2019-03-27T09:14:13.154Z,6.74
2019-03-27T09:15:18.932Z,6.74
2019-03-27T09:16:24.709Z,6.71
2019-03-27T09:17:30.445Z,6.69
2019-03-27T09:18:37.495Z,6.67
2019-03-27T09:19:43.710Z,6.68
2019-03-27T09:20:49.791Z,6.68
2019-03-27T09:21:55.858Z,6.69
2019-03-27T09:23:01.727Z,6.72
2019-03-27T09:24:07.708Z,6.72
2019-03-27T09:25:13.647Z,6.78
2019-03-27T09:26:19.719Z,6.79
2019-03-27T09:27:25.469Z,6.82
2019-03-27T09:28:31.491Z,6.86
2019-03-27T09:29:37.289Z,6.91
2019-03-27T09:30:43.381Z,6.95
2019-03-27T09:31:49.369Z,6.98
2019-03-27T09:32:55.215Z,7.02
2019-03-27T09:34:01.189Z,7.09
2019-03-27T09:35:07.113Z,7.12
2019-03-27T09:36:12.995Z,7.14
2019-03-27T09:37:18.754Z,7.16
2019-03-27T09:38:24.665Z,7.23
2019-03-27T09:39:30.641Z,7.26
2019-03-27T09:40:36.443Z,7.26
2019-03-27T09:41:42.300Z,7.29
2019-03-27T09:42:48.053Z,7.26
2019-03-27T09:43:54.171Z,7.27
2019-03-27T09:45:00.102Z,7.29
2019-03-27T09:46:05.945Z,7.31
2019-03-27T09:47:11.852Z,7.34
2019-03-27T09:48:17.675Z,7.34
2019-03-27T09:49:23.760Z,7.34
2019-03-27T09:50:29.788Z,7.37
2019-03-27T09:51:35.845Z,7.38
2019-03-27T09:52:41.789Z,7.41
2019-03-27T09:53:47.859Z,7.44
2019-03-27T09:54:54.034Z,7.42
2019-03-27T09:55:59.807Z,7.47
2019-03-27T09:57:05.619Z,7.48
2019-03-27T09:58:11.609Z,7.47
2019-03-27T09:59:17.837Z,7.48
2019-03-27T10:00:49.807Z,7.48
2019-03-27T10:01:55.867Z,7.51
2019-03-27T10:03:01.953Z,7.52
2019-03-27T10:04:07.885Z,7.55
2019-03-27T10:05:14.748Z,7.61
2019-03-27T10:06:20.710Z,7.66
2019-03-27T10:07:26.581Z,7.66
2019-03-27T10:08:32.464Z,7.69
2019-03-27T10:09:38.557Z,7.70
2019-03-27T10:10:44.393Z,7.72
2019-03-27T10:11:50.421Z,7.75
2019-03-27T10:12:56.477Z,7.72
2019-03-27T10:14:02.279Z,7.75
2019-03-27T10:15:09.155Z,7.76
2019-03-27T10:16:14.983Z,7.83
2019-03-27T10:17:20.767Z,7.90
2019-03-27T10:18:26.535Z,7.93
2019-03-27T10:19:32.300Z,7.99
2019-03-27T10:20:38.078Z,8.04
2019-03-27T10:21:43.936Z,8.07
2019-03-27T10:22:49.712Z,8.10
2019-03-27T10:23:55.639Z,8.13
2019-03-27T10:25:01.475Z,8.14
2019-03-27T10:26:07.473Z,8.14
2019-03-27T10:27:13.360Z,8.16
2019-03-27T10:28:19.189Z,8.18
2019-03-27T10:29:25.252Z,8.17
2019-03-27T10:30:31.114Z,8.20
2019-03-27T10:31:37.027Z,8.21
2019-03-27T10:32:43.300Z,8.21
2019-03-27T10:33:49.257Z,8.18
2019-03-27T10:34:55.125Z,8.27
2019-03-27T10:36:01.085Z,8.25
2019-03-27T10:37:06.953Z,8.30
2019-03-27T10:38:12.727Z,8.31
2019-03-27T10:39:18.706Z,8.32
2019-03-27T10:40:24.604Z,8.30
2019-03-27T10:41:30.441Z,8.30
2019-03-27T10:42:36.359Z,8.30
2019-03-27T10:43:42.131Z,8.32
2019-03-27T10:44:48.022Z,8.35
2019-03-27T10:45:54.058Z,8.37
2019-03-27T10:47:00.109Z,8.41
2019-03-27T10:48:06.161Z,8.42
2019-03-27T10:49:12.162Z,8.44
2019-03-27T10:50:18.406Z,8.42
2019-03-27T10:51:24.310Z,8.45
2019-03-27T10:52:30.213Z,8.45
2019-03-27T10:53:37.105Z,8.47
2019-03-27T10:54:43.105Z,8.47
2019-03-27T10:55:48.996Z,8.47
2019-03-27T10:56:54.712Z,8.49
2019-03-27T10:58:00.564Z,8.49
2019-03-27T10:59:09.452Z,8.51
2019-03-27T11:00:15.295Z,8.55
2019-03-27T11:01:21.061Z,8.56
2019-03-27T11:02:26.941Z,8.58
2019-03-27T11:03:33.804Z,8.65
2019-03-27T11:04:39.652Z,8.72
2019-03-27T11:05:45.423Z,8.77
2019-03-27T11:06:51.582Z,8.86
2019-03-27T11:07:57.516Z,8.89
